Time;durP1;ratioP1;P1;durP2;ratioP2;P2;SDS_P1;SDS_P2;PMS_P1;PMS_P2;Temp;Humidity;BMP_temperature;BMP_pressure;BME280_temperature;BME280_humidity;BME280_pressure;Samples;Min_cycle;Max_cycle;Signal;HPM_P1;HPM_P2
2022/03/25 00:00:14;;;;;;;19.83;13.70;;;;;;;6.95;49.80;99944.66;2621617;39;20437;-62
2022/03/25 00:02:47;;;;;;;23.55;14.93;;;;;;;7.00;49.83;99941.63;2621671;54;20091;-63
2022/03/25 00:05:16;;;;;;;24.65;13.98;;;;;;;6.96;50.00;99938.44;2621278;54;20018;-62
2022/03/25 00:07:46;;;;;;;21.33;14.18;;;;;;;6.98;49.96;99939.13;2621284;54;20034;-63
2022/03/25 00:10:16;;;;;;;22.92;14.18;;;;;;;6.92;50.05;99940.50;2621724;54;20030;-62
2022/03/25 00:12:45;;;;;;;19.27;13.32;;;;;;;6.80;50.04;99938.19;2621432;54;20042;-61
2022/03/25 00:15:15;;;;;;;21.33;14.05;;;;;;;6.68;49.95;99940.97;2621436;54;20030;-63
2022/03/25 00:17:47;;;;;;;25.10;14.10;;;;;;;6.64;50.48;99936.94;2621899;54;20031;-61
2022/03/25 00:20:17;;;;;;;22.48;13.48;;;;;;;6.61;50.21;99933.75;2623173;39;20446;-61
2022/03/25 00:22:47;;;;;;;20.73;14.43;;;;;;;6.53;50.22;99944.13;2621754;54;20046;-61
2022/03/25 00:25:17;;;;;;;20.73;13.65;;;;;;;6.47;49.98;99944.72;2623231;36;20030;-61
2022/03/25 00:27:46;;;;;;;21.48;13.63;;;;;;;6.46;50.08;99936.00;2621647;54;20053;-62
2022/03/25 00:30:16;;;;;;;21.02;12.75;;;;;;;6.53;50.30;99939.75;2621120;54;20042;-64
2022/03/25 00:32:48;;;;;;;23.15;13.68;;;;;;;6.61;49.70;99936.41;2621501;54;20054;-60
2022/03/25 00:35:18;;;;;;;23.35;14.45;;;;;;;6.62;49.71;99938.91;2621376;54;20545;-60
2022/03/25 00:37:48;;;;;;;20.25;14.32;;;;;;;6.55;49.95;99932.53;2620567;54;20138;-60
2022/03/25 00:40:17;;;;;;;21.40;13.75;;;;;;;6.49;50.28;99927.00;2621774;39;20422;-60
2022/03/25 00:42:48;;;;;;;20.05;14.00;;;;;;;6.39;50.25;99933.09;2621128;47;20114;-62
2022/03/25 00:45:18;;;;;;;22.52;13.35;;;;;;;6.34;50.47;99927.44;2621599;54;20041;-61
2022/03/25 00:47:50;;;;;;;18.13;12.88;;;;;;;6.39;50.21;99934.88;2621444;54;20031;-62
2022/03/25 00:50:20;;;;;;;19.38;12.93;;;;;;;6.43;50.03;99917.88;2622633;39;20501;-62
2022/03/25 00:52:50;;;;;;;21.05;13.80;;;;;;;6.54;49.79;99930.06;2621984;54;20602;-62
2022/03/25 00:55:20;;;;;;;18.50;12.57;;;;;;;6.58;49.97;99923.56;2621246;54;20034;-61
2022/03/25 00:57:50;;;;;;;22.83;13.27;;;;;;;6.59;49.72;99922.59;2621808;54;20034;-61
2022/03/25 01:00:20;;;;;;;18.73;13.60;;;;;;;6.69;49.87;99924.25;2620833;54;20124;-61
2022/03/25 01:02:52;;;;;;;17.75;12.25;;;;;;;6.70;49.73;99925.91;2621722;54;20038;-68
2022/03/25 01:05:25;;;;;;;21.48;13.40;;;;;;;6.70;49.58;99919.81;2621797;54;20022;-62
2022/03/25 01:07:54;;;;;;;21.30;13.40;;;;;;;6.73;49.24;99916.06;2621835;54;20043;-62
2022/03/25 01:10:25;;;;;;;21.40;12.80;;;;;;;6.72;49.34;99922.28;2622494;47;20046;-62
2022/03/25 01:12:56;;;;;;;23.75;15.32;;;;;;;6.66;49.38;99923.69;2622752;54;20034;-62
2022/03/25 01:15:26;;;;;;;19.70;14.55;;;;;;;6.40;49.89;99920.78;2622913;39;20473;-62
2022/03/25 01:17:58;;;;;;;24.83;15.40;;;;;;;6.17;50.34;99918.44;2622143;54;20034;-62
2022/03/25 01:20:29;;;;;;;23.63;16.15;;;;;;;6.05;50.94;99921.34;2622487;54;20038;-61
2022/03/25 01:22:58;;;;;;;19.63;14.02;;;;;;;6.00;50.82;99921.75;2622038;54;20129;-62
2022/03/25 01:25:28;;;;;;;24.63;14.88;;;;;;;5.88;50.99;99925.41;2621490;47;20037;-64
2022/03/25 01:27:58;;;;;;;25.52;14.00;;;;;;;5.77;51.53;99928.16;2622009;47;20038;-62
2022/03/25 01:30:27;;;;;;;20.17;13.55;;;;;;;5.74;51.97;99920.53;2621779;47;20075;-62
2022/03/25 01:33:00;;;;;;;23.75;15.80;;;;;;;5.73;51.59;99924.97;2622207;54;20121;-62
2022/03/25 01:35:29;;;;;;;22.02;13.73;;;;;;;5.65;51.40;99923.00;2622447;54;20025;-67
2022/03/25 01:37:59;;;;;;;24.83;15.32;;;;;;;5.58;52.17;99923.66;2622967;54;20034;-61
2022/03/25 01:40:29;;;;;;;20.33;14.75;;;;;;;5.52;52.01;99921.59;2621465;47;20022;-61
2022/03/25 01:42:59;;;;;;;27.48;15.25;;;;;;;5.53;52.34;99918.81;2621231;47;20031;-61
2022/03/25 01:45:34;;;;;;;23.95;15.02;;;;;;;5.62;52.48;99917.19;2620469;54;20566;-61
2022/03/25 01:48:13;;;;;;;27.83;16.35;;;;;;;5.58;51.74;99918.41;2622126;39;20400;-61
2022/03/25 01:50:47;;;;;;;28.35;15.68;;;;;;;5.57;52.22;99917.59;2621780;54;20050;-61
2022/03/25 01:53:18;;;;;;;22.42;15.00;;;;;;;5.64;51.99;99904.78;2622176;54;20034;-63
2022/03/25 01:55:52;;;;;;;26.65;13.95;;;;;;;5.71;51.47;99911.13;2621739;54;20085;-61
2022/03/25 01:58:22;;;;;;;21.08;14.60;;;;;;;5.77;51.79;99907.16;2621806;49;20054;-61
2022/03/25 02:00:52;;;;;;;29.27;14.27;;;;;;;5.84;51.53;99901.25;2622775;54;20045;-62
2022/03/25 02:03:26;;;;;;;21.85;14.68;;;;;;;5.92;51.23;99905.84;2621480;54;20026;-61
2022/03/25 02:05:56;;;;;;;24.77;13.77;;;;;;;5.89;51.12;99898.19;2621783;54;20030;-64
2022/03/25 02:08:25;;;;;;;23.65;15.00;;;;;;;5.87;51.14;99900.94;2622027;54;20098;-61
2022/03/25 02:10:55;;;;;;;23.75;15.10;;;;;;;5.65;50.90;99906.44;2622543;54;20034;-63
2022/03/25 02:13:25;;;;;;;21.75;15.38;;;;;;;5.45;52.05;99909.00;2623055;54;20035;-63
2022/03/25 02:16:01;;;;;;;23.90;15.88;;;;;;;5.32;52.16;99905.78;2623206;54;20026;-61
2022/03/25 02:18:34;;;;;;;24.02;15.45;;;;;;;5.13;52.61;99905.69;2623684;54;20026;-61
2022/03/25 02:21:04;;;;;;;24.43;16.03;;;;;;;4.97;52.90;99903.53;2622926;54;20557;-62
2022/03/25 02:23:36;;;;;;;25.17;15.75;;;;;;;4.87;52.82;99902.66;2623562;47;20570;-61
2022/03/25 02:26:06;;;;;;;30.38;16.08;;;;;;;4.84;53.27;99910.75;2623048;54;20030;-63
2022/03/25 02:28:36;;;;;;;24.88;16.02;;;;;;;4.75;53.71;99904.50;2623457;54;20075;-61
2022/03/25 02:31:07;;;;;;;23.67;15.80;;;;;;;4.77;53.77;99901.75;2622461;54;20022;-61
2022/03/25 02:33:37;;;;;;;22.08;15.50;;;;;;;4.88;54.02;99899.88;2622742;47;20021;-60
2022/03/25 02:36:09;;;;;;;22.65;15.95;;;;;;;4.91;53.50;99907.50;2622792;39;20424;-61
2022/03/25 02:38:41;;;;;;;23.08;14.90;;;;;;;4.88;53.92;99899.06;2623499;54;20045;-61
2022/03/25 02:41:11;;;;;;;25.20;17.10;;;;;;;4.96;53.60;99897.47;2621657;54;20027;-61
2022/03/25 02:43:41;;;;;;;23.92;16.98;;;;;;;5.00;53.47;99899.81;2622542;54;20038;-61
2022/03/25 02:46:11;;;;;;;29.50;16.75;;;;;;;5.00;53.16;99899.81;2622906;54;20038;-60
2022/03/25 02:48:41;;;;;;;25.10;16.30;;;;;;;5.06;53.17;99899.28;2621551;39;20487;-61
2022/03/25 02:51:11;;;;;;;27.45;16.88;;;;;;;5.11;52.68;99897.97;2618431;54;20034;-61
2022/03/25 02:53:43;;;;;;;25.77;17.83;;;;;;;4.96;52.69;99889.59;2618976;54;20073;-62
2022/03/25 02:56:13;;;;;;;25.42;15.60;;;;;;;4.91;53.10;99901.44;2619841;54;20071;-62
2022/03/25 02:58:42;;;;;;;28.77;17.13;;;;;;;4.90;53.19;99903.22;2621033;47;20030;-62
2022/03/25 03:01:12;;;;;;;31.60;18.15;;;;;;;4.71;53.21;99900.47;2622139;54;20078;-61
2022/03/25 03:03:42;;;;;;;26.95;17.33;;;;;;;4.59;53.79;99894.47;2622567;54;20051;-62
2022/03/25 03:06:12;;;;;;;25.00;16.48;;;;;;;4.56;53.75;99897.34;2622656;54;20022;-62
2022/03/25 03:08:44;;;;;;;24.25;16.27;;;;;;;4.54;54.45;99901.06;2621554;39;20450;-61
2022/03/25 03:11:14;;;;;;;24.27;15.88;;;;;;;4.63;54.42;99901.13;2621580;54;20105;-61
2022/03/25 03:13:44;;;;;;;23.05;15.80;;;;;;;4.66;53.85;99906.13;2659855;36;20058;-61
2022/03/25 03:16:13;;;;;;;26.80;16.48;;;;;;;4.58;54.40;99903.28;2621919;54;20094;-62
2022/03/25 03:18:43;;;;;;;26.48;17.40;;;;;;;4.57;54.28;99899.03;2621497;47;20030;-62
2022/03/25 03:21:12;;;;;;;39.63;21.88;;;;;;;4.54;54.07;99901.06;2622181;54;20037;-62
2022/03/25 03:23:45;;;;;;;44.78;23.50;;;;;;;4.54;54.50;99901.06;2621821;54;20554;-61
2022/03/25 03:26:14;;;;;;;59.83;26.90;;;;;;;4.62;54.06;99896.84;2622057;54;20061;-61
2022/03/25 03:28:44;;;;;;;44.38;22.98;;;;;;;4.61;54.09;99903.06;2621761;54;20034;-61
2022/03/25 03:31:14;;;;;;;34.85;19.52;;;;;;;4.47;53.76;99896.31;2621845;54;20052;-62
2022/03/25 03:33:44;;;;;;;31.50;18.73;;;;;;;4.35;54.11;99892.09;2621829;54;20034;-62
2022/03/25 03:36:13;;;;;;;29.75;18.20;;;;;;;4.30;54.54;99893.44;2621826;39;20424;-60
2022/03/25 03:38:45;;;;;;;28.38;17.52;;;;;;;4.31;54.90;99892.47;2621679;54;20034;-61
2022/03/25 03:41:16;;;;;;;29.63;17.73;;;;;;;4.41;54.70;99896.00;2623017;54;20026;-60
2022/03/25 03:43:45;;;;;;;26.13;17.33;;;;;;;4.32;54.52;99894.97;2621830;47;20075;-61
2022/03/25 03:46:15;;;;;;;32.88;18.25;;;;;;;4.16;54.70;99889.31;2621541;47;20031;-62
2022/03/25 03:48:45;;;;;;;27.67;17.08;;;;;;;4.08;55.56;99894.34;2621705;47;20045;-61
2022/03/25 03:51:14;;;;;;;26.00;16.30;;;;;;;3.97;55.78;99898.66;2622186;54;20626;-61
2022/03/25 03:53:47;;;;;;;25.50;17.02;;;;;;;3.96;55.59;99896.19;2622031;54;20033;-62
2022/03/25 03:56:16;;;;;;;25.85;17.05;;;;;;;3.87;56.05;99900.34;2622691;54;20561;-61
2022/03/25 03:58:46;;;;;;;26.73;16.42;;;;;;;3.80;56.00;99890.53;2623427;54;20030;-62
2022/03/25 04:01:16;;;;;;;28.55;17.25;;;;;;;3.79;56.14;99894.91;2621840;54;20042;-62
2022/03/25 04:03:46;;;;;;;29.65;19.33;;;;;;;3.87;56.49;99889.88;2622169;54;20147;-61
2022/03/25 04:06:16;;;;;;;30.75;18.42;;;;;;;3.93;56.23;99894.63;2622050;54;20070;-62
2022/03/25 04:08:48;;;;;;;27.33;16.92;;;;;;;3.92;56.34;99895.59;2621051;39;20446;-62
2022/03/25 04:11:18;;;;;;;31.92;18.85;;;;;;;3.95;56.01;99895.34;2620359;50;20023;-62
2022/03/25 04:13:48;;;;;;;28.92;18.08;;;;;;;3.82;56.01;99899.88;2620268;47;20154;-63
2022/03/25 04:16:17;;;;;;;26.80;17.50;;;;;;;3.66;56.83;99894.22;2621663;54;20038;-65
2022/03/25 04:18:47;;;;;;;27.73;18.05;;;;;;;3.63;56.85;99899.69;2620721;54;20034;-63
2022/03/25 04:21:16;;;;;;;27.88;17.98;;;;;;;3.59;56.81;99900.88;2620433;54;20067;-62
2022/03/25 04:23:49;;;;;;;23.70;17.10;;;;;;;3.48;56.85;99899.13;2620406;54;20044;-63
2022/03/25 04:26:18;;;;;;;28.33;19.25;;;;;;;3.45;57.13;99900.19;2620521;54;20042;-62
2022/03/25 04:28:48;;;;;;;31.50;17.75;;;;;;;3.43;57.55;99903.91;2620478;54;20045;-60
2022/03/25 04:31:18;;;;;;;28.80;18.23;;;;;;;3.44;57.08;99905.53;2620877;54;20038;-59
2022/03/25 04:33:47;;;;;;;26.55;17.30;;;;;;;3.35;57.86;99901.88;2620431;54;20522;-59
2022/03/25 04:36:17;;;;;;;27.67;17.25;;;;;;;3.42;57.78;99902.22;2621210;54;20031;-59
2022/03/25 04:38:49;;;;;;;29.45;18.38;;;;;;;3.53;57.76;99909.22;2621363;54;20041;-61
2022/03/25 04:41:19;;;;;;;29.98;17.23;;;;;;;3.46;57.63;99909.69;2621127;54;20042;-60
2022/03/25 04:43:48;;;;;;;31.27;18.50;;;;;;;3.40;57.36;99906.75;2621140;54;20050;-61
2022/03/25 04:46:18;;;;;;;29.80;18.58;;;;;;;3.29;58.13;99911.97;2622426;54;20550;-60
2022/03/25 04:48:48;;;;;;;28.17;17.98;;;;;;;3.32;57.85;99911.72;2621570;54;20027;-60
2022/03/25 04:51:18;;;;;;;31.85;18.48;;;;;;;3.35;58.19;99903.66;2621999;54;20550;-61
2022/03/25 04:53:51;;;;;;;27.88;17.83;;;;;;;3.52;58.19;99908.41;2622222;54;20034;-60
2022/03/25 04:56:21;;;;;;;30.75;17.80;;;;;;;3.38;57.83;99906.84;2622261;54;20038;-61
2022/03/25 04:58:51;;;;;;;27.25;17.50;;;;;;;3.21;58.02;99913.38;2622079;54;20570;-61
2022/03/25 05:01:20;;;;;;;31.23;18.35;;;;;;;3.05;58.57;99912.06;2621999;54;20058;-59
2022/03/25 05:03:50;;;;;;;25.80;18.50;;;;;;;3.05;58.46;99914.69;2622253;54;20018;-65
2022/03/25 05:06:19;;;;;;;32.10;19.13;;;;;;;3.04;58.40;99918.25;2621996;54;20031;-60
2022/03/25 05:08:52;;;;;;;31.35;18.95;;;;;;;3.04;58.83;99916.47;2621941;54;20034;-62
2022/03/25 05:11:21;;;;;;;32.65;19.48;;;;;;;3.02;58.73;99917.53;2621907;54;20034;-61
2022/03/25 05:13:51;;;;;;;28.30;18.90;;;;;;;3.01;58.88;99918.47;2620501;47;20087;-59
2022/03/25 05:16:21;;;;;;;29.55;18.67;;;;;;;3.00;59.05;99911.59;2622360;54;20071;-62
2022/03/25 05:18:50;;;;;;;28.45;18.05;;;;;;;2.99;58.94;99921.22;2623498;39;20394;-61
2022/03/25 05:21:20;;;;;;;38.83;18.75;;;;;;;3.01;58.88;99924.53;2622169;54;20041;-61
2022/03/25 05:23:52;;;;;;;32.05;19.85;;;;;;;3.04;58.92;99915.63;2622080;54;20042;-61
2022/03/25 05:26:22;;;;;;;31.42;18.80;;;;;;;3.04;58.72;99929.53;2622052;54;20545;-61
2022/03/25 05:28:52;;;;;;;31.45;19.60;;;;;;;3.00;58.56;99932.50;2621242;54;20042;-62
2022/03/25 05:31:22;;;;;;;29.30;18.13;;;;;;;2.97;58.94;99930.94;2621855;54;20038;-61
2022/03/25 05:33:51;;;;;;;27.92;19.52;;;;;;;2.96;59.37;99927.50;2622192;54;20018;-62
2022/03/25 05:36:21;;;;;;;31.13;18.05;;;;;;;3.03;58.67;99930.47;2621837;54;20550;-64
2022/03/25 05:38:55;;;;;;;32.58;19.25;;;;;;;3.12;59.04;99934.16;2621493;47;20045;-61
2022/03/25 05:41:25;;;;;;;31.98;20.50;;;;;;;3.26;58.80;99928.69;2623348;54;20035;-63
2022/03/25 05:43:55;;;;;;;33.97;19.98;;;;;;;3.32;58.53;99935.25;2623171;54;20038;-60
2022/03/25 05:46:26;;;;;;;27.42;17.63;;;;;;;3.27;58.40;99947.84;2623000;54;20062;-63
2022/03/25 05:48:55;;;;;;;32.17;19.70;;;;;;;3.36;58.10;99942.72;2622558;54;20532;-62
2022/03/25 05:51:25;;;;;;;31.13;19.15;;;;;;;3.37;57.87;99948.78;2621790;36;20034;-63
2022/03/25 05:53:57;;;;;;;36.13;20.38;;;;;;;3.28;57.97;99947.72;2621801;54;20041;-62
2022/03/25 05:56:26;;;;;;;34.25;21.42;;;;;;;3.35;58.14;99948.91;2621214;47;20038;-63
2022/03/25 05:58:56;;;;;;;36.05;21.75;;;;;;;3.44;58.31;99955.22;2621994;47;20030;-65
2022/03/25 06:01:26;;;;;;;36.42;20.25;;;;;;;3.47;57.95;99955.00;2622486;54;20031;-63
2022/03/25 06:03:56;;;;;;;37.75;21.52;;;;;;;3.58;57.88;99954.13;2621982;47;20530;-63
2022/03/25 06:06:25;;;;;;;38.10;21.75;;;;;;;3.61;57.71;99948.66;2621955;54;20026;-61
2022/03/25 06:08:57;;;;;;;34.33;22.00;;;;;;;3.63;57.49;99957.22;2622577;54;20045;-61
2022/03/25 06:11:27;;;;;;;33.35;20.02;;;;;;;3.68;57.46;99953.31;2622600;46;20115;-61
2022/03/25 06:13:57;;;;;;;31.85;19.35;;;;;;;3.74;57.72;99959.81;2622502;54;20033;-60
2022/03/25 06:16:26;;;;;;;36.10;21.65;;;;;;;3.85;57.48;99961.59;2622878;54;20026;-62
2022/03/25 06:18:57;;;;;;;33.78;21.63;;;;;;;3.93;57.16;99967.88;2622670;54;20082;-63
2022/03/25 06:21:26;;;;;;;32.45;21.23;;;;;;;3.91;56.85;99969.78;2622507;54;20030;-63
2022/03/25 06:23:59;;;;;;;42.30;23.52;;;;;;;3.90;56.82;99975.97;2621977;54;20045;-63
2022/03/25 06:26:29;;;;;;;40.03;23.50;;;;;;;3.81;56.78;99976.72;2622159;54;20091;-63
2022/03/25 06:28:59;;;;;;;34.33;22.13;;;;;;;3.88;57.02;99979.69;2622423;54;20096;-61
2022/03/25 06:31:29;;;;;;;32.90;20.73;;;;;;;3.90;57.12;99969.91;2622736;54;20034;-61
2022/03/25 06:33:59;;;;;;;35.33;22.20;;;;;;;4.00;56.98;99986.56;2623959;39;20438;-60
2022/03/25 06:36:28;;;;;;;37.00;23.30;;;;;;;4.07;57.23;99979.88;2622579;54;20034;-61
2022/03/25 06:39:01;;;;;;;36.80;23.63;;;;;;;4.12;56.44;99975.13;2622699;54;20031;-61
2022/03/25 06:41:30;;;;;;;36.13;21.83;;;;;;;4.07;56.27;99979.88;2622600;54;20039;-61
2022/03/25 06:44:01;;;;;;;39.03;23.88;;;;;;;4.08;56.22;99981.56;2623417;39;20414;-59
2022/03/25 06:46:31;;;;;;;39.45;23.08;;;;;;;4.13;56.62;99984.63;2622203;54;20034;-60
2022/03/25 06:49:02;;;;;;;38.08;24.77;;;;;;;4.25;56.48;99982.81;2622565;54;20034;-60
2022/03/25 06:51:32;;;;;;;36.38;24.45;;;;;;;4.35;56.37;99977.66;2622232;54;20031;-60
2022/03/25 06:54:05;;;;;;;41.55;24.15;;;;;;;4.41;55.95;99983.25;2621915;54;20071;-60
2022/03/25 06:56:36;;;;;;;41.58;23.20;;;;;;;4.54;56.09;99987.47;2621044;54;20864;-62
2022/03/25 06:59:07;;;;;;;38.15;23.50;;;;;;;4.66;55.89;99983.84;2622431;54;20560;-60
2022/03/25 07:01:37;;;;;;;38.40;24.88;;;;;;;4.81;56.17;99979.13;2622162;54;20030;-61
2022/03/25 07:04:07;;;;;;;38.50;24.08;;;;;;;4.92;55.20;99982.53;2620638;54;20436;-60
2022/03/25 07:06:40;;;;;;;37.22;22.95;;;;;;;4.99;55.10;99984.66;2621624;54;20030;-60
2022/03/25 07:09:12;;;;;;;39.05;22.98;;;;;;;5.12;55.65;99985.28;2623158;54;20094;-61
2022/03/25 07:11:42;;;;;;;39.50;23.02;;;;;;;5.21;55.12;99984.50;2621313;54;20026;-61
2022/03/25 07:14:12;;;;;;;36.40;24.00;;;;;;;5.27;54.57;99984.00;2621570;54;20094;-60
2022/03/25 07:16:43;;;;;;;39.90;24.67;;;;;;;5.33;54.14;99980.84;2621222;54;20562;-60
2022/03/25 07:19:13;;;;;;;36.65;23.95;;;;;;;5.39;54.22;99984.75;2620450;46;20027;-61
2022/03/25 07:21:42;;;;;;;40.88;24.88;;;;;;;5.50;54.30;99978.56;2621147;54;20026;-61
2022/03/25 07:24:16;;;;;;;35.55;23.27;;;;;;;5.59;54.34;99983.88;2620767;54;20038;-62
2022/03/25 07:26:46;;;;;;;41.67;25.27;;;;;;;5.70;53.69;99988.19;2620857;54;20039;-61
2022/03/25 07:29:15;;;;;;;44.75;24.65;;;;;;;5.74;53.59;99981.72;2620846;54;20030;-60
2022/03/25 07:31:45;;;;;;;44.97;29.20;;;;;;;5.77;53.59;99983.25;2620675;54;20023;-60
2022/03/25 07:34:15;;;;;;;42.40;28.35;;;;;;;5.86;53.23;99983.28;2621447;54;20030;-60
2022/03/25 07:36:44;;;;;;;37.88;25.85;;;;;;;5.94;52.86;99980.84;2621127;54;20149;-59
2022/03/25 07:39:17;;;;;;;44.60;26.60;;;;;;;6.06;52.86;99989.44;2620709;54;20042;-62
2022/03/25 07:41:46;;;;;;;46.42;25.00;;;;;;;6.19;52.78;99981.31;2620487;54;20042;-61
2022/03/25 07:44:16;;;;;;;38.40;24.27;;;;;;;6.25;52.08;99982.56;2620461;54;20030;-60
2022/03/25 07:46:45;;;;;;;46.13;27.58;;;;;;;6.36;52.25;99985.88;2620984;54;20070;-60
2022/03/25 07:49:15;;;;;;;46.92;26.58;;;;;;;6.53;52.21;99988.81;2620279;54;20035;-61
2022/03/25 07:51:45;;;;;;;42.92;24.95;;;;;;;6.73;52.29;99989.63;2618543;54;20045;-61
2022/03/25 07:54:17;;;;;;;43.78;26.10;;;;;;;6.97;51.87;99992.66;2619884;54;20041;-61
2022/03/25 07:56:46;;;;;;;39.70;25.38;;;;;;;7.14;51.81;99991.97;2620646;54;20046;-62
2022/03/25 07:59:16;;;;;;;40.72;24.90;;;;;;;7.29;51.32;99989.69;2620380;54;20026;-59
2022/03/25 08:01:46;;;;;;;43.55;26.13;;;;;;;7.49;50.79;99993.09;2620374;54;20037;-63
2022/03/25 08:04:16;;;;;;;43.22;27.33;;;;;;;7.66;50.45;99992.34;2620413;54;20022;-62
2022/03/25 08:06:45;;;;;;;41.35;26.58;;;;;;;7.81;49.91;99989.25;2620980;39;20408;-61
2022/03/25 08:09:18;;;;;;;51.17;33.95;;;;;;;7.97;49.58;99984.19;2621194;54;20030;-61
2022/03/25 08:11:48;;;;;;;46.03;27.35;;;;;;;8.11;49.52;99986.31;2621325;54;20547;-60
2022/03/25 08:14:21;;;;;;;51.17;29.83;;;;;;;8.34;49.56;99984.09;2621476;54;20137;-62
2022/03/25 08:16:51;;;;;;;45.85;29.52;;;;;;;8.59;48.96;99979.91;2621612;54;20039;-60
2022/03/25 08:19:20;;;;;;;43.22;26.90;;;;;;;8.73;48.46;99982.97;2623368;54;20030;-60
2022/03/25 08:21:50;;;;;;;40.78;25.98;;;;;;;8.92;47.99;99981.00;2624945;46;20058;-61
2022/03/25 08:29:48;;;;;;;46.33;29.00;;;;;;;9.44;46.63;99980.19;2621665;54;20034;-61
2022/03/25 08:32:18;;;;;;;50.45;30.92;;;;;;;9.59;46.23;99977.78;2620765;54;20038;-61
2022/03/25 08:34:47;;;;;;;46.88;30.48;;;;;;;9.76;45.13;99979.53;2619222;54;20030;-59
2022/03/25 08:37:17;;;;;;;54.92;31.20;;;;;;;9.84;45.18;99976.94;2619741;54;20030;-60
2022/03/25 08:39:49;;;;;;;65.28;40.45;;;;;;;10.02;44.65;99974.19;2620072;54;20538;-61
2022/03/25 08:42:19;;;;;;;50.83;31.77;;;;;;;10.17;44.21;99975.22;2621686;54;20031;-62
2022/03/25 08:44:48;;;;;;;52.47;31.80;;;;;;;10.34;43.98;99970.00;2621621;54;20038;-60
2022/03/25 08:47:18;;;;;;;58.47;32.78;;;;;;;10.49;44.07;99978.09;2621580;54;20058;-61
2022/03/25 08:49:48;;;;;;;56.65;35.85;;;;;;;10.57;43.74;99970.19;2621368;54;20027;-62
2022/03/25 08:52:20;;;;;;;65.32;43.53;;;;;;;10.65;43.19;99972.84;2621897;54;20030;-64
2022/03/25 08:54:53;;;;;;;60.78;37.38;;;;;;;10.80;43.08;99976.47;2622840;54;20030;-62
2022/03/25 08:57:22;;;;;;;55.17;34.92;;;;;;;10.83;42.78;99973.50;2622388;54;20038;-62
2022/03/25 08:59:52;;;;;;;52.60;34.90;;;;;;;10.94;43.00;99972.38;2622378;54;20142;-62
2022/03/25 09:02:22;;;;;;;50.35;30.48;;;;;;;11.05;42.84;99965.88;2622292;54;20034;-62
2022/03/25 09:04:52;;;;;;;58.97;34.15;;;;;;;11.22;42.01;99964.88;2621585;54;20018;-64
2022/03/25 09:07:21;;;;;;;50.17;30.77;;;;;;;11.29;41.70;99963.19;2620590;54;20038;-63
2022/03/25 09:09:53;;;;;;;52.90;29.33;;;;;;;11.34;41.78;99960.88;2620052;54;20126;-63
2022/03/25 09:12:23;;;;;;;60.83;35.90;;;;;;;11.54;41.05;99960.50;2620194;54;20046;-62
2022/03/25 09:14:53;;;;;;;52.53;32.50;;;;;;;11.62;40.32;99958.63;2620113;54;20034;-64
2022/03/25 09:17:22;;;;;;;53.05;32.55;;;;;;;11.64;41.14;99958.50;2620804;54;20070;-63
2022/03/25 09:19:54;;;;;;;50.67;30.95;;;;;;;11.79;40.77;99958.56;2619719;54;20067;-62
2022/03/25 09:22:24;;;;;;;58.05;35.78;;;;;;;11.95;40.52;99953.22;2619325;54;20035;-63
2022/03/25 09:24:56;;;;;;;50.92;35.00;;;;;;;12.07;40.17;99956.31;2618543;47;20581;-62
2022/03/25 09:27:26;;;;;;;52.40;34.13;;;;;;;12.17;40.13;99956.13;2619785;54;20039;-64
2022/03/25 09:29:56;;;;;;;50.10;33.65;;;;;;;12.20;39.96;99947.78;2619052;54;20183;-63
2022/03/25 09:32:25;;;;;;;52.65;34.22;;;;;;;12.32;39.90;99947.22;2620083;54;20142;-63
2022/03/25 09:35:13;;;;;;;55.65;33.40;;;;;;;12.39;40.29;99950.00;2622894;54;20545;-63
2022/03/25 09:37:44;;;;;;;52.08;32.00;;;;;;;12.54;39.88;99952.72;2619751;39;20408;-62
2022/03/25 09:40:20;;;;;;;51.10;31.25;;;;;;;12.59;39.44;99953.00;2620136;54;20034;-61
2022/03/25 09:42:52;;;;;;;53.40;34.42;;;;;;;12.71;39.38;99956.06;2619612;54;20038;-63
2022/03/25 09:45:23;;;;;;;46.28;30.98;;;;;;;12.79;39.39;99951.53;2619774;54;20034;-62
2022/03/25 09:47:54;;;;;;;50.22;32.47;;;;;;;12.98;39.24;99944.91;2619276;54;20061;-62
2022/03/25 09:50:31;;;;;;;69.80;37.40;;;;;;;13.30;38.14;99942.94;2618715;54;20030;-63
2022/03/25 09:53:01;;;;;;;51.47;32.47;;;;;;;13.45;37.62;99940.28;2618826;54;20130;-64
2022/03/25 09:55:41;;;;;;;55.72;36.90;;;;;;;13.52;37.73;99943.88;2617082;54;20809;-62
2022/03/25 09:58:18;;;;;;;48.00;35.47;;;;;;;13.75;36.28;99943.75;2618932;54;20566;-64
2022/03/25 10:00:51;;;;;;;47.72;36.33;;;;;;;13.87;35.91;99940.41;2619483;54;20026;-63
2022/03/25 10:03:27;;;;;;;43.65;33.63;;;;;;;13.93;35.52;99938.06;2619489;54;20042;-63
2022/03/25 10:05:59;;;;;;;52.95;36.00;;;;;;;14.09;35.46;99948.47;2619765;39;20069;-66
2022/03/25 10:08:44;;;;;;;55.78;37.45;;;;;;;14.17;34.97;99943.03;2619772;54;20038;-64
2022/03/25 10:11:24;;;;;;;46.47;32.83;;;;;;;14.16;35.13;99938.69;2620117;54;20095;-63
2022/03/25 10:14:18;;;;;;;53.80;36.97;;;;;;;14.30;35.34;99929.88;2621404;54;20038;-62
2022/03/25 10:16:49;;;;;;;49.17;33.13;;;;;;;14.31;35.39;99936.81;2621643;54;20045;-63
2022/03/25 10:19:20;;;;;;;50.17;34.42;;;;;;;14.26;35.58;99939.22;2622035;54;20086;-62
2022/03/25 10:21:55;;;;;;;50.92;35.25;;;;;;;14.37;35.46;99929.94;2621944;54;20557;-63
2022/03/25 10:24:44;;;;;;;49.50;35.13;;;;;;;14.50;35.45;99926.63;2621798;54;20041;-63
2022/03/25 10:27:23;;;;;;;52.58;36.28;;;;;;;14.71;35.34;99925.78;2621913;54;20122;-63
2022/03/25 10:29:54;;;;;;;57.45;38.35;;;;;;;14.88;34.40;99921.81;2621150;54;20038;-63
2022/03/25 10:32:26;;;;;;;55.38;37.75;;;;;;;14.94;33.56;99921.06;2620859;54;20629;-63
2022/03/25 10:35:04;;;;;;;52.00;35.70;;;;;;;14.84;33.92;99924.03;2621722;39;20411;-62
2022/03/25 10:37:34;;;;;;;49.72;33.42;;;;;;;14.88;34.04;99915.66;2621532;54;20038;-63
2022/03/25 10:40:07;;;;;;;49.63;33.90;;;;;;;15.08;33.58;99925.44;2621154;54;20034;-64
2022/03/25 10:42:39;;;;;;;46.95;34.47;;;;;;;15.22;33.48;99917.53;2621270;54;20034;-64
2022/03/25 10:45:28;;;;;;;50.28;35.05;;;;;;;15.25;34.31;99915.31;2621456;54;20026;-64
2022/03/25 10:48:14;;;;;;;50.83;34.55;;;;;;;15.34;33.86;99923.97;2621021;54;20063;-62
2022/03/25 10:50:57;;;;;;;51.25;35.85;;;;;;;15.43;33.54;99914.81;2623068;54;20050;-61
2022/03/25 10:53:28;;;;;;;49.33;36.67;;;;;;;15.48;33.48;99916.88;2622523;39;20441;-64
2022/03/25 10:55:59;;;;;;;52.28;36.88;;;;;;;15.65;33.85;99925.41;2621394;54;20046;-62
2022/03/25 10:58:32;;;;;;;65.18;34.88;;;;;;;15.65;32.83;99912.06;2619781;54;20071;-61
2022/03/25 11:01:02;;;;;;;53.33;38.13;;;;;;;15.81;31.59;99915.22;2620659;54;20026;-62
2022/03/25 11:03:33;;;;;;;50.58;36.38;;;;;;;15.79;32.00;99906.56;2621131;31;20515;-62
2022/03/25 11:06:02;;;;;;;47.03;35.45;;;;;;;15.75;32.46;99904.50;2620157;54;20034;-63
2022/03/25 11:08:33;;;;;;;50.95;36.72;;;;;;;15.92;31.10;99916.50;2621670;39;20459;-62
2022/03/25 11:11:02;;;;;;;46.03;33.85;;;;;;;15.97;30.98;99914.03;2620458;54;20069;-63
2022/03/25 11:13:35;;;;;;;55.42;37.72;;;;;;;15.79;31.79;99911.09;2620645;54;20037;-63
2022/03/25 11:16:08;;;;;;;47.90;33.30;;;;;;;15.87;32.06;99912.75;2620430;39;20494;-63
2022/03/25 11:18:41;;;;;;;47.10;33.83;;;;;;;16.04;31.97;99906.88;2619793;39;20568;-61
2022/03/25 11:21:11;;;;;;;48.22;36.72;;;;;;;16.20;31.77;99903.00;2619508;54;20086;-59
2022/03/25 11:23:47;;;;;;;50.78;37.25;;;;;;;16.37;31.10;99908.81;2619443;54;20030;-60
2022/03/25 11:26:22;;;;;;;50.08;36.80;;;;;;;16.36;30.66;99904.47;2619749;54;20034;-61
2022/03/25 11:28:59;;;;;;;51.20;37.05;;;;;;;16.40;30.38;99910.22;2618987;54;20030;-63
2022/03/25 11:31:28;;;;;;;45.28;35.70;;;;;;;16.35;29.89;99911.66;2619983;39;20400;-62
2022/03/25 11:34:10;;;;;;;50.17;36.45;;;;;;;16.44;29.53;99906.13;2618988;39;20446;-61
2022/03/25 11:36:45;;;;;;;44.97;33.63;;;;;;;16.44;29.61;99903.44;2619427;54;20125;-64
2022/03/25 11:39:27;;;;;;;48.63;35.08;;;;;;;16.51;29.75;99902.44;2619561;54;20030;-59
2022/03/25 11:42:06;;;;;;;46.50;35.78;;;;;;;16.56;29.49;99893.81;2618998;54;20034;-61
2022/03/25 11:44:38;;;;;;;48.55;36.95;;;;;;;16.72;28.74;99892.59;2619437;54;20030;-61
2022/03/25 11:47:21;;;;;;;45.33;34.92;;;;;;;16.75;28.90;99882.34;2618558;54;20038;-61